createdAt,value
2017-05-22T00:00:49.898Z,1012.68
2017-05-22T00:01:50.507Z,1012.70
2017-05-22T00:02:51.116Z,1012.69
2017-05-22T00:03:51.718Z,1012.69
2017-05-22T00:04:52.332Z,1012.68
2017-05-22T00:05:52.944Z,1012.65
2017-05-22T00:06:53.560Z,1012.63
2017-05-22T00:07:54.220Z,1012.60
2017-05-22T00:08:54.822Z,1012.63
2017-05-22T00:09:55.426Z,1012.62
2017-05-22T00:10:56.038Z,1012.65
2017-05-22T00:11:56.636Z,1012.63
2017-05-22T00:12:57.250Z,1012.59
2017-05-22T00:13:57.861Z,1012.60
2017-05-22T00:14:58.469Z,1012.62
2017-05-22T00:15:59.082Z,1012.61
2017-05-22T00:16:59.688Z,1012.57
2017-05-22T00:18:00.289Z,1012.59
2017-05-22T00:19:00.891Z,1012.55
2017-05-22T00:20:01.493Z,1012.54
2017-05-22T00:21:02.091Z,1012.56
2017-05-22T00:22:02.696Z,1012.55
2017-05-22T00:23:03.299Z,1012.57
2017-05-22T00:24:03.910Z,1012.53
2017-05-22T00:25:04.514Z,1012.52
2017-05-22T00:26:05.175Z,1012.51
2017-05-22T00:27:05.779Z,1012.52
2017-05-22T00:28:06.377Z,1012.48
2017-05-22T00:29:06.981Z,1012.47
2017-05-22T00:30:07.581Z,1012.47
2017-05-22T00:31:08.177Z,1012.48
2017-05-22T00:32:08.804Z,1012.48
2017-05-22T00:33:09.443Z,1012.47
2017-05-22T00:34:10.067Z,1012.42
2017-05-22T00:35:10.685Z,1012.41
2017-05-22T00:36:11.289Z,1012.42
2017-05-22T00:37:11.892Z,1012.38
2017-05-22T00:38:12.505Z,1012.41
2017-05-22T00:39:13.117Z,1012.40
2017-05-22T00:40:13.712Z,1012.37
2017-05-22T00:41:14.321Z,1012.38
2017-05-22T00:42:14.927Z,1012.39
2017-05-22T00:43:15.537Z,1012.38
2017-05-22T00:44:16.140Z,1012.40
2017-05-22T00:45:16.754Z,1012.41
2017-05-22T00:46:17.375Z,1012.41
2017-05-22T00:47:17.973Z,1012.39
2017-05-22T00:48:18.570Z,1012.42
2017-05-22T00:49:19.175Z,1012.42
2017-05-22T00:50:19.788Z,1012.43
2017-05-22T00:51:20.410Z,1012.41
2017-05-22T00:52:21.029Z,1012.43
2017-05-22T00:53:21.625Z,1012.36
2017-05-22T00:54:22.233Z,1012.37
2017-05-22T00:55:22.854Z,1012.38
2017-05-22T00:56:23.470Z,1012.38
2017-05-22T00:57:24.088Z,1012.41
2017-05-22T00:58:24.751Z,1012.39
2017-05-22T00:59:25.355Z,1012.35
2017-05-22T01:00:25.973Z,1012.39
2017-05-22T01:01:26.579Z,1012.41
2017-05-22T01:02:27.177Z,1012.38
2017-05-22T01:03:27.789Z,1012.37
2017-05-22T01:04:28.407Z,1012.40
2017-05-22T01:05:29.019Z,1012.38
2017-05-22T01:06:29.664Z,1012.41
2017-05-22T01:07:30.252Z,1012.35
2017-05-22T01:08:30.868Z,1012.35
2017-05-22T01:09:31.470Z,1012.36
2017-05-22T01:10:32.067Z,1012.31
2017-05-22T01:11:32.667Z,1012.33
2017-05-22T01:12:33.292Z,1012.33
2017-05-22T01:13:33.870Z,1012.34
2017-05-22T01:14:34.483Z,1012.30
2017-05-22T01:15:35.100Z,1012.31
2017-05-22T01:16:35.713Z,1012.28
2017-05-22T01:17:36.332Z,1012.28
2017-05-22T01:18:36.926Z,1012.23
2017-05-22T01:19:37.525Z,1012.22
2017-05-22T01:20:38.120Z,1012.23
2017-05-22T01:21:38.730Z,1012.23
2017-05-22T01:22:39.345Z,1012.21
2017-05-22T01:23:39.951Z,1012.22
2017-05-22T01:24:40.560Z,1012.22
2017-05-22T01:25:41.171Z,1012.22
2017-05-22T01:26:41.776Z,1012.18
2017-05-22T01:27:42.395Z,1012.18
2017-05-22T01:28:43.020Z,1012.15
2017-05-22T01:29:43.638Z,1012.18
2017-05-22T01:30:44.232Z,1012.16
2017-05-22T01:31:44.834Z,1012.17
2017-05-22T01:32:45.453Z,1012.15
2017-05-22T01:33:46.055Z,1012.13
2017-05-22T01:34:46.674Z,1012.11
2017-05-22T01:35:47.273Z,1012.14
2017-05-22T01:36:47.872Z,1012.15
2017-05-22T01:37:48.488Z,1012.15
2017-05-22T01:38:49.099Z,1012.16
2017-05-22T01:39:49.700Z,1012.11
2017-05-22T01:40:50.298Z,1012.07
2017-05-22T01:41:50.908Z,1012.08
2017-05-22T01:42:51.506Z,1012.09
2017-05-22T01:43:52.109Z,1012.07
2017-05-22T01:44:52.714Z,1012.03
2017-05-22T01:45:53.327Z,1012.03
2017-05-22T01:46:53.944Z,1012.05
2017-05-22T01:47:54.563Z,1012.06
2017-05-22T01:48:55.158Z,1012.01
2017-05-22T01:49:55.773Z,1012.03
2017-05-22T01:50:56.393Z,1012.00
2017-05-22T01:51:56.991Z,1011.97
2017-05-22T01:52:57.612Z,1011.99
2017-05-22T01:53:58.228Z,1011.96
2017-05-22T01:54:58.843Z,1011.94
2017-05-22T01:55:59.442Z,1011.95
2017-05-22T01:57:00.064Z,1011.90
2017-05-22T01:58:00.672Z,1011.95
2017-05-22T01:59:01.270Z,1011.93
2017-05-22T02:00:01.866Z,1011.93
2017-05-22T02:01:02.479Z,1011.93
2017-05-22T02:02:03.098Z,1011.95
2017-05-22T02:03:03.714Z,1011.95
2017-05-22T02:04:04.317Z,1011.93
2017-05-22T02:05:04.924Z,1011.93
2017-05-22T02:06:05.527Z,1011.85
2017-05-22T02:07:06.145Z,1011.90
2017-05-22T02:08:06.761Z,1011.88
2017-05-22T02:09:07.368Z,1011.83
2017-05-22T02:10:07.978Z,1011.85
2017-05-22T02:11:08.579Z,1011.84
2017-05-22T02:12:09.178Z,1011.82
2017-05-22T02:13:09.791Z,1011.77
2017-05-22T02:14:10.401Z,1011.78
2017-05-22T02:15:11.003Z,1011.76
2017-05-22T02:16:11.614Z,1011.79
2017-05-22T02:17:12.230Z,1011.77
2017-05-22T02:18:12.823Z,1011.75
2017-05-22T02:19:13.430Z,1011.75
2017-05-22T02:20:14.035Z,1011.78
2017-05-22T02:21:14.634Z,1011.77
2017-05-22T02:22:15.231Z,1011.77
2017-05-22T02:23:15.823Z,1011.73
2017-05-22T02:24:16.441Z,1011.71
2017-05-22T02:25:17.035Z,1011.80
2017-05-22T02:26:17.646Z,1011.74
2017-05-22T02:27:18.269Z,1011.72
2017-05-22T02:28:18.883Z,1011.75
2017-05-22T02:29:19.506Z,1011.75
2017-05-22T02:30:20.099Z,1011.73
2017-05-22T02:31:20.691Z,1011.69
2017-05-22T02:32:21.297Z,1011.68
2017-05-22T02:33:21.904Z,1011.72
2017-05-22T02:34:22.508Z,1011.69
2017-05-22T02:35:23.105Z,1011.65
2017-05-22T02:36:23.723Z,1011.64
2017-05-22T02:37:24.337Z,1011.66
2017-05-22T02:38:24.930Z,1011.63
2017-05-22T02:39:25.538Z,1011.59
2017-05-22T02:40:26.142Z,1011.56
2017-05-22T02:41:26.745Z,1011.55
2017-05-22T02:42:27.363Z,1011.51
2017-05-22T02:43:27.973Z,1011.53
2017-05-22T02:44:28.583Z,1011.52
2017-05-22T02:45:29.195Z,1011.50
2017-05-22T02:46:29.792Z,1011.49
2017-05-22T02:47:30.386Z,1011.51
2017-05-22T02:48:30.996Z,1011.52
2017-05-22T02:49:31.595Z,1011.53
2017-05-22T02:50:32.190Z,1011.51
2017-05-22T02:51:32.800Z,1011.52
2017-05-22T02:52:33.418Z,1011.52
2017-05-22T02:53:34.018Z,1011.47
2017-05-22T02:54:34.634Z,1011.46
2017-05-22T02:55:35.246Z,1011.46
2017-05-22T02:56:35.848Z,1011.42
2017-05-22T02:57:36.448Z,1011.42
2017-05-22T02:58:37.056Z,1011.41
2017-05-22T02:59:37.657Z,1011.38
2017-05-22T03:00:38.255Z,1011.40
2017-05-22T03:01:38.858Z,1011.34
2017-05-22T03:02:39.459Z,1011.36
2017-05-22T03:03:40.060Z,1011.37
2017-05-22T03:04:40.649Z,1011.40
2017-05-22T03:05:41.250Z,1011.38
2017-05-22T03:06:41.869Z,1011.40
2017-05-22T03:07:42.488Z,1011.40
2017-05-22T03:08:43.099Z,1011.36
2017-05-22T03:09:43.693Z,1011.36
2017-05-22T03:10:44.301Z,1011.37
2017-05-22T03:11:44.900Z,1011.40
2017-05-22T03:12:45.495Z,1011.43
2017-05-22T03:13:46.098Z,1011.41
2017-05-22T03:14:46.731Z,1011.39
2017-05-22T03:15:47.333Z,1011.39
2017-05-22T03:16:47.948Z,1011.39
2017-05-22T03:17:48.543Z,1011.38
2017-05-22T03:18:49.149Z,1011.38
2017-05-22T03:19:49.818Z,1011.39
2017-05-22T03:20:50.411Z,1011.39
2017-05-22T03:21:51.014Z,1011.43
2017-05-22T03:22:51.632Z,1011.43
2017-05-22T03:23:52.248Z,1011.36
2017-05-22T03:24:52.887Z,1011.43
2017-05-22T03:25:53.466Z,1011.40
2017-05-22T03:26:54.063Z,1011.37
2017-05-22T03:27:54.659Z,1011.38
2017-05-22T03:28:55.272Z,1011.38
2017-05-22T03:29:55.868Z,1011.36
2017-05-22T03:30:56.476Z,1011.35
2017-05-22T03:31:57.075Z,1011.36
2017-05-22T03:32:57.693Z,1011.37
2017-05-22T03:33:58.308Z,1011.38
2017-05-22T03:34:58.915Z,1011.35
2017-05-22T03:35:59.521Z,1011.39
2017-05-22T03:37:00.136Z,1011.35
2017-05-22T03:38:00.756Z,1011.33
2017-05-22T03:39:01.354Z,1011.36
2017-05-22T03:40:01.966Z,1011.35
2017-05-22T03:41:02.565Z,1011.35
2017-05-22T03:42:03.172Z,1011.33
2017-05-22T03:43:03.770Z,1011.31
2017-05-22T03:44:04.389Z,1011.31
2017-05-22T03:45:05.000Z,1011.37
2017-05-22T03:46:05.603Z,1011.33
2017-05-22T03:47:06.222Z,1011.33
2017-05-22T03:48:06.839Z,1011.34
2017-05-22T03:49:07.444Z,1011.34
2017-05-22T03:50:08.046Z,1011.34
2017-05-22T03:51:08.643Z,1011.35
2017-05-22T03:52:09.250Z,1011.34
2017-05-22T03:53:09.848Z,1011.32
2017-05-22T03:54:10.469Z,1011.31
2017-05-22T03:55:11.077Z,1011.28
2017-05-22T03:56:11.695Z,1011.29
2017-05-22T03:57:12.317Z,1011.27
2017-05-22T03:58:12.938Z,1011.29
2017-05-22T03:59:13.535Z,1011.30
2017-05-22T04:00:14.139Z,1011.31
2017-05-22T04:01:14.752Z,1011.35
2017-05-22T04:02:15.365Z,1011.31
2017-05-22T04:03:15.973Z,1011.32
2017-05-22T04:04:16.576Z,1011.34
2017-05-22T04:05:17.186Z,1011.31
2017-05-22T04:06:17.790Z,1011.32
2017-05-22T04:07:18.410Z,1011.29
2017-05-22T04:08:19.008Z,1011.31
2017-05-22T04:09:19.615Z,1011.31
2017-05-22T04:10:20.230Z,1011.35
2017-05-22T04:11:20.834Z,1011.30
2017-05-22T04:12:21.457Z,1011.32
2017-05-22T04:13:22.076Z,1011.28
2017-05-22T04:14:22.689Z,1011.27
2017-05-22T04:15:23.290Z,1011.28
2017-05-22T04:16:23.893Z,1011.26
2017-05-22T04:17:24.492Z,1011.25
2017-05-22T04:18:25.101Z,1011.22
2017-05-22T04:19:25.704Z,1011.21
2017-05-22T04:20:26.310Z,1011.20
2017-05-22T04:21:26.926Z,1011.19
2017-05-22T04:22:27.533Z,1011.22
2017-05-22T04:23:28.142Z,1011.26
2017-05-22T04:24:28.757Z,1011.19
2017-05-22T04:25:29.355Z,1011.20
2017-05-22T04:26:29.957Z,1011.26
2017-05-22T04:27:30.565Z,1011.21
2017-05-22T04:28:31.170Z,1011.25
2017-05-22T04:29:31.775Z,1011.27
2017-05-22T04:30:32.400Z,1011.24
2017-05-22T04:31:33.019Z,1011.21
2017-05-22T04:32:33.639Z,1011.20
2017-05-22T04:33:34.257Z,1011.20
2017-05-22T04:34:34.867Z,1011.22
2017-05-22T04:35:35.485Z,1011.24
2017-05-22T04:36:36.102Z,1011.22
2017-05-22T04:37:36.723Z,1011.20
2017-05-22T04:38:37.343Z,1011.21
2017-05-22T04:39:37.962Z,1011.23
2017-05-22T04:40:38.576Z,1011.24
2017-05-22T04:41:39.244Z,1011.26
2017-05-22T04:42:39.867Z,1011.27
2017-05-22T04:43:40.492Z,1011.24
2017-05-22T04:44:41.110Z,1011.24
2017-05-22T04:45:41.726Z,1011.23
2017-05-22T04:46:42.336Z,1011.21
2017-05-22T04:47:42.949Z,1011.24
2017-05-22T04:48:43.560Z,1011.25
2017-05-22T04:49:44.192Z,1011.26
2017-05-22T04:50:44.802Z,1011.26
2017-05-22T04:51:45.428Z,1011.25
2017-05-22T04:52:46.051Z,1011.26
2017-05-22T04:53:46.656Z,1011.27
2017-05-22T04:54:47.278Z,1011.26
2017-05-22T04:55:47.887Z,1011.27
2017-05-22T04:56:48.504Z,1011.23
2017-05-22T04:57:49.121Z,1011.24
2017-05-22T04:58:49.751Z,1011.21
2017-05-22T04:59:50.365Z,1011.20
2017-05-22T05:00:50.988Z,1011.21
2017-05-22T05:01:51.601Z,1011.15
2017-05-22T05:02:52.225Z,1011.17
2017-05-22T05:03:52.849Z,1011.16
2017-05-22T05:04:53.467Z,1011.19
2017-05-22T05:05:54.079Z,1011.12
2017-05-22T05:06:54.691Z,1011.14
2017-05-22T05:07:55.312Z,1011.12
2017-05-22T05:08:55.934Z,1011.15
2017-05-22T05:09:56.549Z,1011.13
2017-05-22T05:10:57.169Z,1011.16
2017-05-22T05:11:57.804Z,1011.13
2017-05-22T05:12:58.460Z,1011.12
2017-05-22T05:13:59.054Z,1011.11
2017-05-22T05:14:59.679Z,1011.07
2017-05-22T05:16:00.314Z,1011.11
2017-05-22T05:17:00.929Z,1011.08
2017-05-22T05:18:01.552Z,1011.05
2017-05-22T05:19:02.181Z,1011.06
2017-05-22T05:20:02.801Z,1011.07
2017-05-22T05:21:03.429Z,1011.08
2017-05-22T05:22:04.054Z,1011.06
2017-05-22T05:23:04.682Z,1011.06
2017-05-22T05:24:05.297Z,1011.02
2017-05-22T05:25:05.909Z,1011.01
2017-05-22T05:26:06.541Z,1011.03
2017-05-22T05:27:07.175Z,1011.06
2017-05-22T05:28:07.807Z,1011.03
2017-05-22T05:29:08.432Z,1011.04
2017-05-22T05:30:09.072Z,1011.06
2017-05-22T05:31:09.700Z,1011.02
2017-05-22T05:32:10.319Z,1011.04
2017-05-22T05:33:10.932Z,1011.02
2017-05-22T05:34:11.561Z,1011.03
2017-05-22T05:35:12.197Z,1011.06
2017-05-22T05:36:12.819Z,1011.07
2017-05-22T05:37:13.449Z,1011.04
2017-05-22T05:38:14.072Z,1011.05
2017-05-22T05:39:14.691Z,1011.08
2017-05-22T05:40:15.329Z,1011.07
2017-05-22T05:41:16.003Z,1011.08
2017-05-22T05:42:16.641Z,1011.04
2017-05-22T05:43:17.281Z,1011.13
2017-05-22T05:44:17.943Z,1011.13
2017-05-22T05:45:18.554Z,1011.17
2017-05-22T05:46:19.185Z,1011.16
2017-05-22T05:47:19.824Z,1011.12
2017-05-22T05:48:20.444Z,1011.10
2017-05-22T05:49:21.084Z,1011.10
2017-05-22T05:50:21.703Z,1011.11
2017-05-22T05:51:22.328Z,1011.10
2017-05-22T05:52:22.949Z,1011.05
2017-05-22T05:53:23.575Z,1011.11
2017-05-22T05:54:24.206Z,1011.10
2017-05-22T05:55:24.836Z,1011.08
2017-05-22T05:56:25.457Z,1011.07
2017-05-22T05:57:26.073Z,1011.09
2017-05-22T05:58:26.707Z,1011.10
2017-05-22T05:59:27.337Z,1011.07
2017-05-22T06:00:27.953Z,1011.10
2017-05-22T06:01:28.587Z,1011.11
2017-05-22T06:02:29.207Z,1011.10
2017-05-22T06:03:29.874Z,1011.14
2017-05-22T06:04:30.503Z,1011.12
2017-05-22T06:05:31.129Z,1011.13
2017-05-22T06:06:31.756Z,1011.12
2017-05-22T06:07:32.390Z,1011.15
2017-05-22T06:08:33.018Z,1011.14
2017-05-22T06:09:33.635Z,1011.09
2017-05-22T06:10:34.263Z,1011.09
2017-05-22T06:11:34.879Z,1011.10
2017-05-22T06:12:35.504Z,1011.10
2017-05-22T06:13:36.139Z,1011.07
2017-05-22T06:14:36.811Z,1011.08
2017-05-22T06:15:37.450Z,1011.10
2017-05-22T06:16:38.074Z,1011.08
2017-05-22T06:17:38.705Z,1011.12
2017-05-22T06:18:39.327Z,1011.10
2017-05-22T06:19:40.000Z,1011.04
2017-05-22T06:20:40.618Z,1011.09
2017-05-22T06:21:41.244Z,1011.09
2017-05-22T06:22:41.881Z,1011.08
2017-05-22T06:23:42.526Z,1011.04
2017-05-22T06:24:43.163Z,1011.09
2017-05-22T06:25:43.793Z,1011.12
2017-05-22T06:26:44.454Z,1011.15
2017-05-22T06:27:45.179Z,1011.11
2017-05-22T06:28:45.807Z,1011.13
2017-05-22T06:29:46.446Z,1011.17
2017-05-22T06:30:47.081Z,1011.17
2017-05-22T06:31:47.712Z,1011.16
2017-05-22T06:32:48.391Z,1011.16
2017-05-22T06:33:49.009Z,1011.14
2017-05-22T06:34:49.628Z,1011.19
2017-05-22T06:35:50.270Z,1011.15
2017-05-22T06:36:50.915Z,1011.14
2017-05-22T06:37:51.557Z,1011.12
2017-05-22T06:38:52.182Z,1011.11
2017-05-22T06:39:52.814Z,1011.08
2017-05-22T06:40:53.461Z,1011.10
2017-05-22T06:41:54.097Z,1011.13
2017-05-22T06:42:54.738Z,1011.12
2017-05-22T06:43:55.377Z,1011.11
2017-05-22T06:44:56.007Z,1011.13
2017-05-22T06:45:56.641Z,1011.15
2017-05-22T06:46:57.283Z,1011.12
2017-05-22T06:47:57.918Z,1011.10
2017-05-22T06:48:58.541Z,1011.07
2017-05-22T06:49:59.166Z,1011.11
2017-05-22T06:50:59.801Z,1011.08
2017-05-22T06:52:00.437Z,1011.07
2017-05-22T06:53:01.079Z,1011.10
2017-05-22T06:54:01.720Z,1011.08
2017-05-22T06:55:02.366Z,1011.03
2017-05-22T06:56:03.008Z,1011.03
2017-05-22T06:57:03.650Z,1011.05
2017-05-22T06:58:04.268Z,1011.08
2017-05-22T06:59:04.904Z,1010.98
2017-05-22T07:00:05.558Z,1011.02
2017-05-22T07:01:06.181Z,1010.99
2017-05-22T07:02:06.822Z,1010.85
2017-05-22T07:03:07.459Z,1011.00
2017-05-22T07:04:08.084Z,1010.93
2017-05-22T07:05:08.719Z,1010.98
2017-05-22T07:06:09.410Z,1010.94
2017-05-22T07:07:10.025Z,1010.92
2017-05-22T07:08:10.659Z,1010.92
2017-05-22T07:09:11.294Z,1010.91
2017-05-22T07:10:11.929Z,1010.94
2017-05-22T07:11:12.566Z,1010.92
2017-05-22T07:12:13.198Z,1010.95
2017-05-22T07:13:13.817Z,1010.94
2017-05-22T07:14:14.435Z,1010.92
2017-05-22T07:15:15.073Z,1010.87
2017-05-22T07:16:15.752Z,1010.89
2017-05-22T07:17:16.394Z,1010.88
2017-05-22T07:18:17.030Z,1010.89
2017-05-22T07:19:17.660Z,1010.85
2017-05-22T07:20:18.294Z,1010.86
2017-05-22T07:21:18.988Z,1010.87
2017-05-22T07:22:19.627Z,1010.89
2017-05-22T07:23:20.261Z,1010.91
2017-05-22T07:24:20.892Z,1010.89
2017-05-22T07:25:21.521Z,1010.94
2017-05-22T07:26:22.149Z,1010.87
2017-05-22T07:27:22.785Z,1010.89
2017-05-22T07:28:23.421Z,1010.91
2017-05-22T07:29:24.057Z,1010.92
2017-05-22T07:30:24.693Z,1010.92
2017-05-22T07:31:25.323Z,1010.91
2017-05-22T07:32:25.948Z,1010.92
2017-05-22T07:33:26.577Z,1010.92
2017-05-22T07:34:27.207Z,1010.86
2017-05-22T07:35:27.836Z,1010.85
2017-05-22T07:36:28.661Z,1010.85
2017-05-22T07:37:29.279Z,1010.88
2017-05-22T07:38:29.910Z,1010.87
2017-05-22T07:39:30.545Z,1010.86
2017-05-22T07:40:31.180Z,1010.81
2017-05-22T07:41:31.810Z,1010.85
2017-05-22T07:42:32.433Z,1010.85
2017-05-22T07:43:33.056Z,1010.88
2017-05-22T07:44:33.678Z,1010.83
2017-05-22T07:45:34.315Z,1010.85
2017-05-22T07:46:34.943Z,1010.77
2017-05-22T07:47:35.567Z,1010.79
2017-05-22T07:48:36.203Z,1010.73
2017-05-22T07:49:36.829Z,1010.76
2017-05-22T07:50:37.470Z,1010.76
2017-05-22T07:51:38.088Z,1010.72
2017-05-22T07:52:38.722Z,1010.69
2017-05-22T07:53:39.342Z,1010.64
2017-05-22T07:54:39.961Z,1010.70
2017-05-22T07:55:40.600Z,1010.70
2017-05-22T07:56:41.234Z,1010.71
2017-05-22T07:57:41.869Z,1010.63
2017-05-22T07:58:42.507Z,1010.65
2017-05-22T07:59:43.126Z,1010.69
2017-05-22T08:00:43.762Z,1010.68
2017-05-22T08:01:44.402Z,1010.66
2017-05-22T08:02:45.037Z,1010.63
2017-05-22T08:03:45.674Z,1010.64
2017-05-22T08:04:46.317Z,1010.62
2017-05-22T08:05:46.945Z,1010.61
2017-05-22T08:06:47.579Z,1010.63
2017-05-22T08:07:48.203Z,1010.61
2017-05-22T08:08:48.845Z,1010.63
2017-05-22T08:09:49.469Z,1010.66
2017-05-22T08:10:50.112Z,1010.65
2017-05-22T08:11:50.747Z,1010.63
2017-05-22T08:12:51.374Z,1010.61
2017-05-22T08:13:52.012Z,1010.59
2017-05-22T08:14:52.652Z,1010.56
2017-05-22T08:15:53.277Z,1010.59
2017-05-22T08:16:53.926Z,1010.56
2017-05-22T08:17:54.567Z,1010.54
2017-05-22T08:18:55.197Z,1010.48
2017-05-22T08:19:55.840Z,1010.47
2017-05-22T08:20:56.459Z,1010.51
2017-05-22T08:21:57.105Z,1010.46
2017-05-22T08:22:57.743Z,1010.46
2017-05-22T08:23:58.378Z,1010.49
2017-05-22T08:24:59.018Z,1010.49
2017-05-22T08:25:59.651Z,1010.47
2017-05-22T08:27:00.286Z,1010.48
2017-05-22T08:28:00.927Z,1010.46
2017-05-22T08:29:01.544Z,1010.45
2017-05-22T08:30:02.169Z,1010.51
2017-05-22T08:31:02.805Z,1010.50
2017-05-22T08:32:03.439Z,1010.51
2017-05-22T08:33:04.061Z,1010.55
2017-05-22T08:34:04.680Z,1010.53
2017-05-22T08:35:05.309Z,1010.54
2017-05-22T08:36:05.952Z,1010.58
2017-05-22T08:37:06.589Z,1010.54
2017-05-22T08:38:07.210Z,1010.52
2017-05-22T08:39:07.840Z,1010.50
2017-05-22T08:40:08.467Z,1010.53
2017-05-22T08:41:09.087Z,1010.57
2017-05-22T08:42:09.720Z,1010.55
2017-05-22T08:43:10.351Z,1010.53
2017-05-22T08:44:10.986Z,1010.55
2017-05-22T08:45:11.624Z,1010.53
2017-05-22T08:46:12.266Z,1010.54
2017-05-22T08:47:12.957Z,1010.51
2017-05-22T08:48:13.583Z,1010.48
2017-05-22T08:49:14.215Z,1010.54
2017-05-22T08:50:14.842Z,1010.46
2017-05-22T08:51:15.465Z,1010.46
2017-05-22T08:52:16.107Z,1010.44
2017-05-22T08:53:16.747Z,1010.50
2017-05-22T08:54:17.373Z,1010.52
2017-05-22T08:55:18.010Z,1010.51
2017-05-22T08:56:18.631Z,1010.50
2017-05-22T08:57:19.258Z,1010.52
2017-05-22T08:58:19.892Z,1010.51
2017-05-22T08:59:20.506Z,1010.54
2017-05-22T09:00:21.151Z,1010.47
2017-05-22T09:01:21.790Z,1010.50
2017-05-22T09:02:22.429Z,1010.47
2017-05-22T09:03:23.047Z,1010.49
2017-05-22T09:04:23.680Z,1010.47
2017-05-22T09:05:24.316Z,1010.46
2017-05-22T09:06:24.948Z,1010.44
2017-05-22T09:07:25.569Z,1010.46
2017-05-22T09:08:26.195Z,1010.39
2017-05-22T09:09:26.830Z,1010.41
2017-05-22T09:10:27.489Z,1010.39
2017-05-22T09:11:28.122Z,1010.36
2017-05-22T09:12:28.744Z,1010.41
2017-05-22T09:13:29.402Z,1010.41
2017-05-22T09:14:30.083Z,1010.36
2017-05-22T09:15:30.739Z,1010.32
2017-05-22T09:16:31.364Z,1010.27
2017-05-22T09:17:32.006Z,1010.35
2017-05-22T09:18:32.648Z,1010.30
2017-05-22T09:19:33.338Z,1010.31
2017-05-22T09:20:33.976Z,1010.29
2017-05-22T09:21:34.612Z,1010.23
2017-05-22T09:22:35.256Z,1010.25
2017-05-22T09:23:35.881Z,1010.24
2017-05-22T09:24:36.573Z,1010.18
2017-05-22T09:25:37.191Z,1010.22
2017-05-22T09:26:37.828Z,1010.19
2017-05-22T09:27:38.468Z,1010.20
2017-05-22T09:28:39.100Z,1010.15
2017-05-22T09:29:39.743Z,1010.15
2017-05-22T09:30:40.383Z,1010.12
2017-05-22T09:31:41.026Z,1010.13
2017-05-22T09:32:41.651Z,1010.16
2017-05-22T09:33:42.276Z,1010.15
2017-05-22T09:34:42.910Z,1010.15
2017-05-22T09:35:43.532Z,1010.11
2017-05-22T09:36:44.164Z,1010.07
2017-05-22T09:37:44.781Z,1010.04
2017-05-22T09:38:45.411Z,1010.13
2017-05-22T09:39:46.044Z,1010.08
2017-05-22T09:40:46.682Z,1010.02
2017-05-22T09:41:47.310Z,1010.06
2017-05-22T09:42:47.948Z,1009.99
2017-05-22T09:43:48.568Z,1010.06
2017-05-22T09:44:49.195Z,1010.04
2017-05-22T09:45:49.834Z,1010.02
2017-05-22T09:46:50.463Z,1010.04
2017-05-22T09:47:51.084Z,1010.00
2017-05-22T09:48:51.713Z,1010.00
2017-05-22T09:49:52.348Z,1010.00
2017-05-22T09:50:52.980Z,1010.01
2017-05-22T09:51:53.605Z,1009.90
2017-05-22T09:52:54.233Z,1009.87
2017-05-22T09:53:54.867Z,1009.93
2017-05-22T09:54:55.495Z,1009.88
2017-05-22T09:55:56.115Z,1009.86
2017-05-22T09:56:56.734Z,1009.88
2017-05-22T09:57:57.364Z,1009.68
2017-05-22T09:58:58.000Z,1009.88
2017-05-22T09:59:58.640Z,1009.83
2017-05-22T10:00:59.271Z,1009.80
2017-05-22T10:01:59.903Z,1009.76
2017-05-22T10:03:00.526Z,1009.79
2017-05-22T10:04:01.153Z,1009.77
2017-05-22T10:05:01.783Z,1009.77
2017-05-22T10:06:02.411Z,1009.77
2017-05-22T10:07:03.055Z,1009.73
2017-05-22T10:08:03.736Z,1009.77
2017-05-22T10:09:04.367Z,1009.68
2017-05-22T10:10:04.991Z,1009.68
2017-05-22T10:11:05.630Z,1009.69
2017-05-22T10:12:06.269Z,1009.65
2017-05-22T10:13:06.902Z,1009.67
2017-05-22T10:14:07.538Z,1009.66
2017-05-22T10:15:08.158Z,1009.63
2017-05-22T10:16:08.788Z,1009.66
2017-05-22T10:17:09.412Z,1009.58
2017-05-22T10:18:10.032Z,1009.65
2017-05-22T10:19:10.659Z,1009.60
2017-05-22T10:20:11.279Z,1009.56
2017-05-22T10:21:11.909Z,1009.52
2017-05-22T10:22:12.546Z,1009.58
2017-05-22T10:23:13.185Z,1009.55
2017-05-22T10:24:13.812Z,1009.49
2017-05-22T10:25:14.438Z,1009.52
2017-05-22T10:26:15.085Z,1009.51
2017-05-22T10:27:15.728Z,1009.53
2017-05-22T10:28:16.424Z,1009.48
2017-05-22T10:29:17.039Z,1009.47
2017-05-22T10:30:17.678Z,1009.43
2017-05-22T10:31:18.317Z,1009.48
2017-05-22T10:32:18.935Z,1009.44
2017-05-22T10:33:19.559Z,1009.42
2017-05-22T10:34:20.194Z,1009.36
2017-05-22T10:35:20.823Z,1009.30
2017-05-22T10:36:21.459Z,1009.37
2017-05-22T10:37:22.085Z,1009.36
2017-05-22T10:38:22.725Z,1009.43
2017-05-22T10:39:23.351Z,1009.38
2017-05-22T10:40:23.996Z,1009.40
2017-05-22T10:41:24.634Z,1009.35
2017-05-22T10:42:25.318Z,1009.39
2017-05-22T10:43:25.937Z,1009.41
2017-05-22T10:44:26.558Z,1009.35
2017-05-22T10:45:27.188Z,1009.38
2017-05-22T10:46:27.819Z,1009.40
2017-05-22T10:47:28.447Z,1009.33
2017-05-22T10:48:29.070Z,1009.36
2017-05-22T10:49:29.690Z,1009.31
2017-05-22T10:50:30.323Z,1009.31
2017-05-22T10:51:30.965Z,1009.24
2017-05-22T10:52:31.599Z,1009.31
2017-05-22T10:53:32.225Z,1009.24
2017-05-22T10:54:32.865Z,1009.23
2017-05-22T10:55:33.501Z,1009.24
2017-05-22T10:56:34.147Z,1009.24
2017-05-22T10:57:34.840Z,1009.22
2017-05-22T10:58:35.481Z,1009.17
2017-05-22T10:59:36.100Z,1009.13
2017-05-22T11:00:36.740Z,1009.11
2017-05-22T11:01:37.359Z,1009.12
2017-05-22T11:02:37.984Z,1009.15
2017-05-22T11:03:38.619Z,1009.13
2017-05-22T11:04:39.236Z,1009.02
2017-05-22T11:05:39.863Z,1009.05
2017-05-22T11:06:40.486Z,1009.06
2017-05-22T11:07:41.108Z,1009.03
2017-05-22T11:08:41.778Z,1009.03
2017-05-22T11:09:42.416Z,1009.02
2017-05-22T11:10:43.059Z,1009.00
2017-05-22T11:11:43.697Z,1009.04
2017-05-22T11:12:44.334Z,1008.95
2017-05-22T11:13:44.974Z,1009.02
2017-05-22T11:14:45.620Z,1009.06
2017-05-22T11:15:46.264Z,1009.05
2017-05-22T11:16:46.882Z,1009.02
2017-05-22T11:17:47.567Z,1009.03
2017-05-22T11:18:48.191Z,1009.01
2017-05-22T11:19:48.832Z,1009.01
2017-05-22T11:20:49.676Z,1009.02
2017-05-22T11:21:50.323Z,1008.98
2017-05-22T11:22:50.969Z,1009.03
2017-05-22T11:23:51.597Z,1008.94
2017-05-22T11:24:52.235Z,1008.92
2017-05-22T11:25:52.856Z,1008.95
2017-05-22T11:26:53.484Z,1008.94
2017-05-22T11:27:54.118Z,1008.98
2017-05-22T11:28:54.761Z,1008.96
2017-05-22T11:29:55.407Z,1008.91
2017-05-22T11:30:56.023Z,1008.95
2017-05-22T11:31:56.648Z,1008.92
2017-05-22T11:32:57.290Z,1008.94
2017-05-22T11:33:57.909Z,1008.95
2017-05-22T11:34:58.536Z,1008.96
2017-05-22T11:35:59.169Z,1008.90
2017-05-22T11:36:59.799Z,1008.87
2017-05-22T11:38:00.431Z,1008.91
2017-05-22T11:39:01.066Z,1008.96
2017-05-22T11:40:01.691Z,1008.89
2017-05-22T11:41:02.313Z,1008.93
2017-05-22T11:42:02.991Z,1008.91
2017-05-22T11:43:03.640Z,1008.88
2017-05-22T11:44:04.258Z,1008.84
2017-05-22T11:45:04.889Z,1008.83
2017-05-22T11:46:05.523Z,1008.84
2017-05-22T11:47:06.154Z,1008.85
2017-05-22T11:48:06.807Z,1008.86
2017-05-22T11:49:07.433Z,1008.83
2017-05-22T11:50:08.074Z,1008.80
2017-05-22T11:51:08.920Z,1008.88
2017-05-22T11:52:09.556Z,1008.84
2017-05-22T11:53:10.183Z,1008.83
2017-05-22T11:54:10.804Z,1008.84
2017-05-22T11:55:11.422Z,1008.76
2017-05-22T11:56:12.050Z,1008.75
2017-05-22T11:57:12.673Z,1008.76
2017-05-22T11:58:13.312Z,1008.78
2017-05-22T11:59:13.946Z,1008.70
2017-05-22T12:00:14.577Z,1008.76
2017-05-22T12:01:15.233Z,1008.77
2017-05-22T12:02:15.875Z,1008.77
2017-05-22T12:03:16.540Z,1008.74
2017-05-22T12:04:17.202Z,1008.71
2017-05-22T12:05:17.881Z,1008.71
2017-05-22T12:06:18.499Z,1008.67
2017-05-22T12:07:19.121Z,1008.65
2017-05-22T12:08:19.756Z,1008.67
2017-05-22T12:09:20.388Z,1008.60
2017-05-22T12:10:21.002Z,1008.61
2017-05-22T12:11:21.629Z,1008.67
2017-05-22T12:12:22.271Z,1008.63
2017-05-22T12:13:22.907Z,1008.67